createdAt,value
2018-11-27T00:00:23.105Z,95.70
2018-11-27T00:02:53.156Z,95.70
2018-11-27T00:05:21.335Z,95.70
2018-11-27T00:07:49.514Z,95.60
2018-11-27T00:10:17.720Z,95.70
2018-11-27T00:12:45.885Z,95.70
2018-11-27T00:15:14.081Z,95.40
2018-11-27T00:17:42.256Z,95.50
2018-11-27T00:20:12.773Z,95.40
2018-11-27T00:22:41.067Z,95.50
2018-11-27T00:25:13.488Z,95.60
2018-11-27T00:27:41.670Z,95.70
2018-11-27T00:30:17.984Z,96.00
2018-11-27T00:32:46.178Z,95.80
2018-11-27T00:35:15.829Z,95.90
2018-11-27T00:37:44.009Z,95.80
2018-11-27T00:40:21.320Z,95.80
2018-11-27T00:42:49.612Z,95.70
2018-11-27T00:45:18.876Z,95.60
2018-11-27T00:47:48.013Z,95.40
2018-11-27T00:50:18.665Z,95.50
2018-11-27T00:52:47.166Z,95.60
2018-11-27T00:55:17.349Z,95.60
2018-11-27T00:57:46.856Z,95.70
2018-11-27T01:00:21.051Z,95.70
2018-11-27T01:02:49.250Z,95.80
2018-11-27T01:05:19.080Z,95.70
2018-11-27T01:07:47.446Z,95.80
2018-11-27T01:10:16.966Z,95.30
2018-11-27T01:12:45.189Z,95.50
2018-11-27T01:15:14.597Z,95.60
2018-11-27T01:17:49.089Z,95.60
2018-11-27T01:20:18.454Z,95.60
2018-11-27T01:22:46.983Z,95.50
2018-11-27T01:25:15.137Z,95.40
2018-11-27T01:27:43.320Z,95.50
2018-11-27T01:30:17.916Z,95.40
2018-11-27T01:32:47.484Z,95.10
2018-11-27T01:35:18.032Z,95.00
2018-11-27T01:37:50.734Z,95.10
2018-11-27T01:40:23.731Z,95.30
2018-11-27T01:42:53.830Z,95.60
2018-11-27T01:45:22.513Z,95.70
2018-11-27T01:47:50.962Z,95.70
2018-11-27T01:50:20.276Z,95.70
2018-11-27T01:52:48.650Z,95.70
2018-11-27T01:55:20.445Z,95.70
2018-11-27T01:58:21.829Z,95.70
2018-11-27T02:00:50.001Z,95.60
2018-11-27T02:03:18.180Z,95.70
2018-11-27T02:05:53.898Z,95.70
2018-11-27T02:08:22.216Z,95.70
2018-11-27T02:10:50.406Z,95.80
2018-11-27T02:13:21.299Z,95.70
2018-11-27T02:15:49.640Z,95.60
2018-11-27T02:18:19.259Z,95.20
2018-11-27T02:20:49.473Z,95.40
2018-11-27T02:23:19.627Z,95.40
2018-11-27T02:25:48.114Z,95.30
2018-11-27T02:28:17.950Z,95.30
2018-11-27T02:30:46.124Z,95.30
2018-11-27T02:33:14.478Z,95.30
2018-11-27T02:35:43.187Z,95.30
2018-11-27T02:38:11.377Z,95.20
2018-11-27T02:40:39.541Z,95.30
2018-11-27T02:43:07.746Z,95.40
2018-11-27T02:45:35.944Z,95.40
2018-11-27T02:48:04.296Z,95.60
2018-11-27T02:50:32.493Z,95.80
2018-11-27T02:53:00.644Z,95.90
2018-11-27T02:55:28.832Z,95.70
2018-11-27T02:57:57.205Z,95.70
2018-11-27T03:00:26.635Z,95.90
2018-11-27T03:02:54.962Z,96.00
2018-11-27T03:05:31.145Z,96.00
2018-11-27T03:07:59.297Z,96.20
2018-11-27T03:10:27.480Z,96.20
2018-11-27T03:12:55.672Z,96.00
2018-11-27T03:15:23.832Z,96.20
2018-11-27T03:17:52.010Z,96.40
2018-11-27T03:20:20.186Z,96.40
2018-11-27T03:22:48.337Z,96.30
2018-11-27T03:25:17.736Z,96.20
2018-11-27T03:27:46.721Z,96.30
2018-11-27T03:30:16.157Z,96.30
2018-11-27T03:32:45.170Z,96.50
2018-11-27T03:35:17.868Z,96.40
2018-11-27T03:37:47.348Z,96.40
2018-11-27T03:40:15.677Z,96.50
2018-11-27T03:42:43.857Z,96.60
2018-11-27T03:45:13.182Z,96.60
2018-11-27T03:47:41.345Z,96.60
2018-11-27T03:50:11.878Z,96.70
2018-11-27T03:52:40.050Z,96.70
2018-11-27T03:55:09.589Z,96.80
2018-11-27T03:57:37.863Z,96.80
2018-11-27T04:00:30.002Z,96.80
2018-11-27T04:03:08.789Z,96.70
2018-11-27T04:05:37.238Z,96.70
2018-11-27T04:08:06.860Z,96.70
2018-11-27T04:10:35.109Z,96.70
2018-11-27T04:13:03.286Z,96.70
2018-11-27T04:15:31.486Z,96.70
2018-11-27T04:17:59.863Z,96.70
2018-11-27T04:20:28.019Z,96.80
2018-11-27T04:22:56.201Z,96.70
2018-11-27T04:25:24.382Z,96.50
2018-11-27T04:27:52.539Z,96.60
2018-11-27T04:30:21.553Z,96.70
2018-11-27T04:32:50.288Z,96.70
2018-11-27T04:35:19.833Z,96.80
2018-11-27T04:37:48.208Z,96.80
2018-11-27T04:40:17.324Z,96.90
2018-11-27T04:42:45.691Z,96.90
2018-11-27T04:45:23.719Z,96.30
2018-11-27T04:47:51.887Z,96.20
2018-11-27T04:50:20.327Z,96.40
2018-11-27T04:52:48.531Z,96.50
2018-11-27T04:55:19.905Z,96.40
2018-11-27T04:57:48.064Z,96.40
2018-11-27T05:00:19.480Z,96.30
2018-11-27T05:02:47.662Z,96.00
2018-11-27T05:05:16.135Z,95.90
2018-11-27T05:07:44.321Z,96.00
2018-11-27T05:10:13.492Z,96.30
2018-11-27T05:12:42.101Z,96.30
2018-11-27T05:15:11.942Z,96.30
2018-11-27T05:17:40.249Z,96.00
2018-11-27T05:20:09.860Z,96.00
2018-11-27T05:22:38.117Z,96.00
2018-11-27T05:25:09.482Z,96.00
2018-11-27T05:27:38.329Z,96.10
2018-11-27T05:30:13.014Z,95.90
2018-11-27T05:32:41.208Z,95.90
2018-11-27T05:35:15.772Z,95.60
2018-11-27T05:37:45.213Z,95.50
2018-11-27T05:40:15.794Z,95.90
2018-11-27T05:42:44.081Z,95.90
2018-11-27T05:45:14.488Z,95.80
2018-11-27T05:47:42.694Z,95.60
2018-11-27T05:50:14.939Z,95.90
2018-11-27T05:52:43.128Z,96.00
2018-11-27T05:55:12.135Z,96.00
2018-11-27T05:57:41.031Z,96.10
2018-11-27T06:00:14.401Z,96.10
2018-11-27T06:02:42.593Z,96.10
2018-11-27T06:05:15.300Z,96.00
2018-11-27T06:07:43.541Z,95.60
2018-11-27T06:10:15.788Z,95.70
2018-11-27T06:12:44.029Z,95.80
2018-11-27T06:15:22.713Z,96.00
2018-11-27T06:17:56.166Z,96.00
2018-11-27T06:20:24.592Z,96.00
2018-11-27T06:22:59.694Z,95.60
2018-11-27T06:25:28.890Z,95.60
2018-11-27T06:28:02.141Z,95.50
2018-11-27T06:30:31.195Z,95.80
2018-11-27T06:32:59.473Z,95.50
2018-11-27T06:35:34.564Z,95.60
2018-11-27T06:38:04.008Z,95.60
2018-11-27T06:40:32.584Z,95.60
2018-11-27T06:43:00.745Z,95.40
2018-11-27T06:45:28.953Z,95.30
2018-11-27T06:47:57.125Z,95.50
2018-11-27T06:50:25.280Z,95.40
2018-11-27T06:52:53.478Z,95.40
2018-11-27T06:55:22.733Z,95.40
2018-11-27T06:57:51.088Z,95.50
2018-11-27T07:00:20.877Z,95.50
2018-11-27T07:02:49.885Z,95.50
2018-11-27T07:05:18.064Z,95.40
2018-11-27T07:07:46.223Z,95.40
2018-11-27T07:10:24.751Z,95.50
2018-11-27T07:12:55.617Z,95.40
2018-11-27T07:15:24.289Z,95.50
2018-11-27T07:17:52.443Z,95.60
2018-11-27T07:20:20.610Z,95.60
2018-11-27T07:22:48.804Z,95.90
2018-11-27T07:25:17.977Z,96.00
2018-11-27T07:27:47.705Z,95.70
2018-11-27T07:30:16.961Z,95.60
2018-11-27T07:32:45.355Z,95.60
2018-11-27T07:35:15.470Z,95.50
2018-11-27T07:37:43.658Z,95.50
2018-11-27T07:40:16.852Z,95.30
2018-11-27T07:42:45.225Z,95.10
2018-11-27T07:45:17.498Z,95.10
2018-11-27T07:47:45.720Z,95.10
2018-11-27T07:50:14.633Z,95.00
2018-11-27T07:52:42.850Z,95.00
2018-11-27T07:55:13.140Z,94.80
2018-11-27T07:57:41.310Z,94.50
2018-11-27T08:00:13.585Z,94.70
2018-11-27T08:02:42.365Z,94.50
2018-11-27T08:05:12.792Z,94.70
2018-11-27T08:07:41.959Z,94.60
2018-11-27T08:10:15.464Z,94.90
2018-11-27T08:12:43.624Z,94.30
2018-11-27T08:15:12.950Z,94.20
2018-11-27T08:17:41.613Z,94.30
2018-11-27T08:20:11.653Z,94.30
2018-11-27T08:22:39.828Z,94.30
2018-11-27T08:25:09.636Z,94.20
2018-11-27T08:27:38.129Z,94.40
2018-11-27T08:30:10.481Z,93.90
2018-11-27T08:32:38.640Z,93.90
2018-11-27T08:35:08.343Z,94.00
2018-11-27T08:37:36.541Z,93.90
2018-11-27T08:40:06.630Z,93.70
2018-11-27T08:42:34.821Z,93.60
2018-11-27T08:45:03.005Z,93.20
2018-11-27T08:47:31.176Z,93.30
2018-11-27T08:50:00.149Z,93.50
2018-11-27T08:52:28.337Z,93.40
2018-11-27T08:54:57.730Z,93.30
2018-11-27T08:57:25.923Z,93.40
2018-11-27T08:59:54.104Z,93.10
2018-11-27T09:02:22.376Z,93.00
2018-11-27T09:04:50.870Z,92.70
2018-11-27T09:07:19.017Z,92.40
2018-11-27T09:09:47.193Z,92.20
2018-11-27T09:12:15.356Z,92.20
2018-11-27T09:14:43.891Z,92.10
2018-11-27T09:17:12.056Z,92.00
2018-11-27T09:19:40.242Z,91.60
2018-11-27T09:22:12.782Z,91.40
2018-11-27T09:24:36.623Z,91.40
2018-11-27T09:27:04.984Z,91.50
2018-11-27T09:29:33.177Z,91.50
2018-11-27T09:32:02.573Z,91.10
2018-11-27T09:34:30.806Z,90.20
2018-11-27T09:37:04.489Z,90.20
2018-11-27T09:39:32.640Z,90.80
2018-11-27T09:42:00.840Z,91.00
2018-11-27T09:44:29.037Z,90.90
2018-11-27T09:46:57.227Z,90.70
2018-11-27T09:49:25.422Z,90.70
2018-11-27T09:51:53.595Z,90.30
2018-11-27T09:54:21.783Z,89.80
2018-11-27T09:56:49.980Z,88.90
2018-11-27T09:59:18.553Z,88.10
2018-11-27T10:01:47.632Z,87.00
2018-11-27T10:04:15.800Z,86.10
2018-11-27T10:06:44.000Z,86.20
2018-11-27T10:09:12.189Z,87.00
2018-11-27T10:11:40.353Z,87.70
2018-11-27T10:14:08.542Z,88.30
2018-11-27T10:16:36.730Z,87.80
2018-11-27T10:19:04.975Z,87.00
2018-11-27T10:21:33.165Z,86.80
2018-11-27T10:24:01.344Z,86.40
2018-11-27T10:26:29.701Z,84.70
2018-11-27T10:28:57.952Z,80.40
2018-11-27T10:31:26.442Z,78.80
2018-11-27T10:33:54.616Z,79.10
2018-11-27T10:36:23.781Z,78.10
2018-11-27T10:38:52.300Z,77.60
2018-11-27T10:41:20.448Z,76.80
2018-11-27T10:43:48.633Z,75.00
2018-11-27T10:46:16.867Z,71.20
2018-11-27T10:48:44.998Z,69.50
2018-11-27T10:51:13.168Z,68.10
2018-11-27T10:53:41.367Z,66.60
2018-11-27T10:56:09.527Z,65.70
2018-11-27T10:58:37.685Z,64.90
2018-11-27T11:01:13.144Z,64.20
2018-11-27T11:03:41.991Z,63.50
2018-11-27T11:06:10.724Z,60.50
2018-11-27T11:08:38.906Z,62.70
2018-11-27T11:11:07.977Z,64.60
2018-11-27T11:13:36.489Z,64.70
2018-11-27T11:16:04.925Z,65.40
2018-11-27T11:18:33.120Z,64.10
2018-11-27T11:21:01.281Z,64.60
2018-11-27T11:23:29.465Z,64.10
2018-11-27T11:25:57.609Z,61.70
2018-11-27T11:28:27.580Z,62.10
2018-11-27T11:30:55.847Z,62.30
2018-11-27T11:33:25.025Z,62.70
2018-11-27T11:35:53.179Z,64.60
2018-11-27T11:38:21.587Z,66.70
2018-11-27T11:40:49.746Z,68.80
2018-11-27T11:43:18.118Z,69.00
2018-11-27T11:45:46.307Z,68.60
2018-11-27T11:48:14.603Z,69.90
2018-11-27T11:50:42.777Z,69.30
2018-11-27T11:53:12.696Z,70.20
2018-11-27T11:55:40.888Z,71.20
2018-11-27T11:58:09.225Z,73.00
2018-11-27T12:00:41.290Z,73.10
2018-11-27T12:03:09.497Z,72.30
2018-11-27T12:05:39.210Z,73.10
2018-11-27T12:08:08.412Z,74.60
2018-11-27T12:10:37.910Z,75.00
2018-11-27T12:13:07.656Z,75.00
2018-11-27T12:15:35.845Z,73.40
2018-11-27T12:18:04.301Z,73.50
2018-11-27T12:20:33.017Z,72.90
2018-11-27T12:23:01.235Z,73.10
2018-11-27T12:25:29.403Z,73.30
2018-11-27T12:27:57.557Z,75.20
2018-11-27T12:30:26.714Z,73.00
2018-11-27T12:32:55.041Z,73.20
2018-11-27T12:35:23.871Z,74.10
2018-11-27T12:37:52.328Z,74.70
2018-11-27T12:40:25.420Z,74.90
2018-11-27T12:42:54.022Z,73.60
2018-11-27T12:45:28.848Z,73.30
2018-11-27T12:47:58.083Z,72.90
2018-11-27T12:50:32.052Z,74.80
2018-11-27T12:53:00.788Z,73.20
2018-11-27T12:55:28.600Z,72.10
2018-11-27T12:57:56.780Z,71.30
2018-11-27T13:00:26.413Z,70.50
2018-11-27T13:02:54.573Z,69.20
2018-11-27T13:05:25.319Z,67.40
2018-11-27T13:07:55.347Z,68.20
2018-11-27T13:10:23.547Z,65.60
2018-11-27T13:12:51.702Z,67.00
2018-11-27T13:15:20.675Z,66.80
2018-11-27T13:17:50.081Z,68.80
2018-11-27T13:20:19.006Z,68.60
2018-11-27T13:22:47.605Z,69.70
2018-11-27T13:25:20.125Z,71.40
2018-11-27T13:27:50.905Z,70.90
2018-11-27T13:30:21.479Z,71.90
2018-11-27T13:32:51.728Z,73.80
2018-11-27T13:35:19.888Z,75.40
2018-11-27T13:37:51.842Z,74.70
2018-11-27T13:40:20.017Z,75.10
2018-11-27T13:42:48.199Z,77.40
2018-11-27T13:45:16.706Z,77.40
2018-11-27T13:47:44.962Z,77.60
2018-11-27T13:50:15.085Z,79.50
2018-11-27T13:52:43.336Z,79.10
2018-11-27T13:55:26.503Z,79.00
2018-11-27T13:57:54.659Z,80.10
2018-11-27T14:00:22.815Z,81.70
2018-11-27T14:02:53.563Z,81.40
2018-11-27T14:05:23.154Z,81.80
2018-11-27T14:07:51.319Z,82.20
2018-11-27T14:10:19.531Z,82.70
2018-11-27T14:12:47.719Z,83.40
2018-11-27T14:15:17.863Z,85.00
2018-11-27T14:17:46.053Z,84.30
2018-11-27T14:20:14.367Z,84.50
2018-11-27T14:22:43.839Z,86.00
2018-11-27T14:25:12.644Z,86.50
2018-11-27T14:27:40.814Z,86.70
2018-11-27T14:30:15.040Z,86.20
2018-11-27T14:32:43.469Z,86.10
2018-11-27T14:35:12.255Z,87.10
2018-11-27T14:37:40.455Z,86.00
2018-11-27T14:40:13.520Z,85.40
2018-11-27T14:42:41.705Z,85.80
2018-11-27T14:45:12.137Z,85.40
2018-11-27T14:47:40.309Z,86.40
2018-11-27T14:50:10.312Z,86.90
2018-11-27T14:52:38.516Z,87.40
2018-11-27T14:55:09.608Z,86.80
2018-11-27T14:57:37.806Z,86.70
2018-11-27T15:00:13.978Z,87.30
2018-11-27T15:02:42.167Z,87.70
2018-11-27T15:05:13.073Z,88.80
2018-11-27T15:07:41.333Z,88.80
2018-11-27T15:10:10.938Z,88.50
2018-11-27T15:12:39.555Z,89.00
2018-11-27T15:15:10.349Z,88.70
2018-11-27T15:17:38.573Z,88.80
2018-11-27T15:20:13.096Z,89.00
2018-11-27T15:22:41.327Z,89.10
2018-11-27T15:25:09.540Z,89.60
2018-11-27T15:27:39.658Z,90.00
2018-11-27T15:30:16.793Z,89.90
2018-11-27T15:32:45.184Z,90.00
2018-11-27T15:35:13.891Z,89.10
2018-11-27T15:37:42.091Z,89.60
2018-11-27T15:40:13.906Z,89.80
2018-11-27T15:42:42.461Z,90.30
2018-11-27T15:45:16.672Z,90.20
2018-11-27T15:47:45.081Z,90.20
2018-11-27T15:50:13.274Z,90.10
2018-11-27T15:52:41.505Z,90.30
2018-11-27T15:55:20.592Z,90.40
2018-11-27T15:57:50.355Z,90.60
2018-11-27T16:00:19.553Z,90.70
2018-11-27T16:02:47.761Z,90.90
2018-11-27T16:05:17.064Z,91.00
2018-11-27T16:07:45.276Z,91.20
2018-11-27T16:10:16.681Z,91.40
2018-11-27T16:12:44.871Z,91.30
2018-11-27T16:15:15.072Z,91.30
2018-11-27T16:17:43.516Z,91.30
2018-11-27T16:20:15.031Z,91.40
2018-11-27T16:22:43.746Z,91.50
2018-11-27T16:25:13.016Z,91.60
2018-11-27T16:27:41.895Z,91.70
2018-11-27T16:30:15.212Z,91.90
2018-11-27T16:32:43.391Z,92.10
2018-11-27T16:35:12.709Z,92.00
2018-11-27T16:37:41.461Z,92.10
2018-11-27T16:40:13.014Z,92.30
2018-11-27T16:42:42.110Z,92.30
2018-11-27T16:45:12.761Z,92.40
2018-11-27T16:47:40.957Z,92.50
2018-11-27T16:50:10.734Z,92.50
2018-11-27T16:52:38.988Z,92.70
2018-11-27T16:55:14.605Z,92.70
2018-11-27T16:57:42.780Z,92.80
2018-11-27T17:00:28.602Z,92.80
2018-11-27T17:02:58.910Z,92.90
2018-11-27T17:05:28.997Z,93.00
2018-11-27T17:07:58.025Z,93.40
2018-11-27T17:10:26.252Z,93.20
2018-11-27T17:12:56.002Z,93.30
2018-11-27T17:15:25.472Z,93.30
2018-11-27T17:17:53.842Z,93.40
2018-11-27T17:20:33.423Z,93.50
2018-11-27T17:23:05.322Z,93.60
2018-11-27T17:25:33.555Z,93.80
2018-11-27T17:28:23.068Z,93.70
2018-11-27T17:31:11.049Z,93.70
2018-11-27T17:33:45.117Z,93.80
2018-11-27T17:36:13.280Z,93.70
2018-11-27T17:38:44.713Z,93.80
2018-11-27T17:41:18.283Z,93.80
2018-11-27T17:43:47.459Z,93.70
2018-11-27T17:46:15.624Z,93.70
2018-11-27T17:48:43.840Z,93.80
2018-11-27T17:51:12.025Z,93.90
2018-11-27T17:53:40.184Z,93.90
2018-11-27T17:56:08.707Z,93.90
2018-11-27T17:58:36.860Z,94.00
2018-11-27T18:09:59.149Z,94.10
2018-11-27T18:12:27.325Z,94.00
2018-11-27T18:14:56.326Z,94.20
2018-11-27T18:17:24.521Z,94.20
2018-11-27T18:19:52.684Z,94.30
2018-11-27T18:22:21.075Z,94.30
2018-11-27T18:24:49.256Z,94.30
2018-11-27T18:27:17.420Z,94.40
2018-11-27T18:29:45.652Z,94.40
2018-11-27T18:32:34.065Z,94.50
2018-11-27T18:35:02.248Z,94.50
2018-11-27T18:40:27.620Z,94.70
2018-11-27T18:42:55.777Z,94.70
2018-11-27T18:45:31.341Z,94.70
2018-11-27T18:47:59.684Z,94.70
2018-11-27T18:50:29.281Z,94.70
2018-11-27T18:52:57.451Z,94.60
2018-11-27T18:55:25.625Z,94.50
2018-11-27T18:57:53.814Z,94.60
2018-11-27T19:00:28.836Z,94.70
2018-11-27T19:02:57.072Z,94.90
2018-11-27T19:05:25.251Z,94.70
2018-11-27T19:07:53.412Z,94.70
2018-11-27T19:10:25.089Z,94.60
2018-11-27T19:12:53.537Z,94.70
2018-11-27T19:15:23.139Z,94.60
2018-11-27T19:17:53.673Z,94.60
2018-11-27T19:20:21.858Z,94.60
2018-11-27T19:22:50.054Z,94.50
2018-11-27T19:25:18.215Z,94.50
2018-11-27T19:27:46.425Z,94.50
2018-11-27T19:30:16.406Z,94.50
2018-11-27T19:32:44.304Z,94.60
2018-11-27T19:35:15.001Z,94.80
2018-11-27T19:37:43.593Z,95.00
2018-11-27T19:40:13.284Z,95.50
2018-11-27T19:42:41.766Z,95.20
2018-11-27T19:45:26.583Z,94.80
2018-11-27T19:47:55.948Z,94.90
2018-11-27T19:50:24.114Z,94.80
2018-11-27T19:52:54.656Z,94.80
2018-11-27T19:55:22.868Z,94.70
2018-11-27T19:57:51.092Z,94.60
2018-11-27T20:00:20.581Z,94.50
2018-11-27T20:02:48.861Z,94.40
2018-11-27T20:05:19.060Z,94.50
2018-11-27T20:07:47.548Z,94.50
2018-11-27T20:10:16.176Z,94.50
2018-11-27T20:12:44.571Z,94.50
2018-11-27T20:15:19.908Z,94.30
2018-11-27T20:17:48.849Z,94.30
2018-11-27T20:20:19.157Z,94.20
2018-11-27T20:22:47.337Z,94.20
2018-11-27T20:25:17.177Z,94.00
2018-11-27T20:27:45.397Z,93.80
2018-11-27T20:30:15.876Z,93.60
2018-11-27T20:32:45.745Z,93.70
2018-11-27T20:35:14.853Z,93.70
2018-11-27T20:37:43.624Z,93.40
2018-11-27T20:40:13.143Z,93.50
2018-11-27T20:42:41.332Z,93.40
2018-11-27T20:45:19.355Z,93.40
2018-11-27T20:47:44.193Z,93.40
2018-11-27T20:50:16.595Z,93.60
2018-11-27T20:52:44.861Z,93.60
2018-11-27T20:55:13.039Z,93.60
2018-11-27T20:57:43.286Z,93.70
2018-11-27T21:00:17.486Z,93.70
2018-11-27T21:02:46.770Z,93.60
2018-11-27T21:05:15.031Z,93.60
2018-11-27T21:07:43.379Z,93.70
2018-11-27T21:10:12.700Z,93.60
2018-11-27T21:12:42.540Z,93.50
2018-11-27T21:15:12.121Z,93.40
2018-11-27T21:17:40.297Z,93.30
2018-11-27T21:20:09.994Z,93.60
2018-11-27T21:22:38.310Z,93.70
2018-11-27T21:25:09.132Z,93.60
2018-11-27T21:27:37.325Z,93.70
2018-11-27T21:30:13.316Z,93.90
2018-11-27T21:32:41.533Z,93.60
2018-11-27T21:35:11.805Z,93.20
2018-11-27T21:37:40.221Z,93.10
2018-11-27T21:40:24.758Z,93.10
2018-11-27T21:42:52.944Z,93.10
2018-11-27T21:45:22.304Z,93.10
2018-11-27T21:47:57.159Z,93.00
2018-11-27T21:50:31.793Z,93.20
2018-11-27T21:53:00.984Z,93.20
2018-11-27T21:55:29.162Z,93.30
2018-11-27T21:57:57.348Z,93.30
2018-11-27T22:00:26.340Z,93.50
2018-11-27T22:02:54.894Z,93.70
2018-11-27T22:05:24.169Z,93.50
2018-11-27T22:07:52.510Z,93.60
2018-11-27T22:10:22.525Z,93.70
2018-11-27T22:12:53.140Z,93.80
2018-11-27T22:15:31.815Z,93.70
2018-11-27T22:18:00.790Z,93.80
2018-11-27T22:20:29.502Z,93.80
2018-11-27T22:22:57.813Z,93.80
2018-11-27T22:25:27.378Z,94.00
2018-11-27T22:27:55.789Z,94.00
2018-11-27T22:30:24.608Z,94.20
2018-11-27T22:32:53.869Z,94.30
2018-11-27T22:35:22.324Z,94.50
2018-11-27T22:37:50.561Z,94.30
2018-11-27T22:40:23.204Z,94.30
2018-11-27T22:42:52.421Z,94.30
2018-11-27T22:45:22.897Z,94.40
2018-11-27T22:47:51.091Z,94.20
2018-11-27T22:50:19.662Z,94.10
2018-11-27T22:52:47.855Z,94.20
2018-11-27T22:55:16.069Z,94.20
2018-11-27T22:57:44.300Z,94.20
2018-11-27T23:00:20.666Z,94.30
2018-11-27T23:02:49.667Z,94.40
2018-11-27T23:05:19.103Z,94.20
2018-11-27T23:07:47.292Z,94.20
2018-11-27T23:10:15.793Z,94.00
2018-11-27T23:12:44.229Z,93.90
2018-11-27T23:15:13.655Z,93.90
2018-11-27T23:17:42.472Z,93.90
2018-11-27T23:20:14.913Z,94.10
2018-11-27T23:22:43.109Z,94.00
2018-11-27T23:25:15.620Z,94.00
2018-11-27T23:27:43.949Z,94.00
2018-11-27T23:30:23.962Z,94.10
2018-11-27T23:32:52.172Z,94.20
2018-11-27T23:35:20.383Z,94.30
2018-11-27T23:37:48.579Z,94.30
2018-11-27T23:40:17.920Z,94.30
2018-11-27T23:42:46.689Z,94.20
2018-11-27T23:45:16.030Z,94.20
2018-11-27T23:47:44.260Z,94.20
2018-11-27T23:50:15.827Z,94.30
2018-11-27T23:52:44.221Z,94.30
2018-11-27T23:55:13.620Z,94.40
2018-11-27T23:57:42.181Z,94.50
